createdAt,value
2023-06-27T00:01:41.019Z,101428.63
2023-06-27T00:04:08.275Z,101422.03
2023-06-27T00:06:38.294Z,101425.41
2023-06-27T00:09:07.171Z,101419.34
2023-06-27T00:11:33.793Z,101418.00
2023-06-27T00:14:00.318Z,101403.88
2023-06-27T00:16:33.565Z,101433.69
2023-06-27T00:19:04.790Z,101431.31
2023-06-27T00:21:32.671Z,101430.97
2023-06-27T00:24:02.895Z,101431.34
2023-06-27T00:26:29.698Z,101431.81
2023-06-27T00:28:56.831Z,101418.00
2023-06-27T00:31:23.573Z,101435.03
2023-06-27T00:33:50.204Z,101431.81
2023-06-27T00:36:16.686Z,101439.41
2023-06-27T00:38:43.183Z,101409.88
2023-06-27T00:41:09.700Z,101445.13
2023-06-27T00:43:36.453Z,101438.22
2023-06-27T00:46:07.909Z,101437.22
2023-06-27T00:48:35.190Z,101439.22
2023-06-27T00:51:02.439Z,101440.41
2023-06-27T00:53:29.360Z,101435.34
2023-06-27T00:55:56.272Z,101448.47
2023-06-27T00:58:23.066Z,101445.09
2023-06-27T01:00:49.506Z,101440.72
2023-06-27T01:03:16.472Z,101413.75
2023-06-27T01:05:44.013Z,101401.25
2023-06-27T01:08:19.286Z,101431.63
2023-06-27T01:10:53.246Z,101444.09
2023-06-27T01:13:28.642Z,101396.41
2023-06-27T01:15:55.885Z,101428.75
2023-06-27T01:18:24.465Z,101425.38
2023-06-27T01:20:51.473Z,101404.63
2023-06-27T01:23:24.542Z,101440.19
2023-06-27T01:25:54.139Z,101444.06
2023-06-27T01:28:20.673Z,101407.97
2023-06-27T01:30:47.226Z,101391.31
2023-06-27T01:33:28.678Z,101412.88
2023-06-27T01:36:05.732Z,101435.78
2023-06-27T01:38:45.387Z,101447.41
2023-06-27T01:41:18.043Z,101442.03
2023-06-27T01:43:46.572Z,101440.13
2023-06-27T01:46:13.851Z,101455.50
2023-06-27T01:48:42.035Z,101442.34
2023-06-27T01:51:09.994Z,101446.88
2023-06-27T01:53:40.158Z,101449.91
2023-06-27T01:56:07.970Z,101470.59
2023-06-27T01:58:34.677Z,101447.53
2023-06-27T02:01:01.179Z,101447.38
2023-06-27T02:03:27.814Z,101443.19
2023-06-27T02:05:54.314Z,101391.97
2023-06-27T02:08:21.107Z,101396.84
2023-06-27T02:10:47.581Z,101437.31
2023-06-27T02:13:14.010Z,101432.78
2023-06-27T02:15:41.373Z,101423.84
2023-06-27T02:18:08.135Z,101429.06
2023-06-27T02:20:34.631Z,101428.38
2023-06-27T02:23:01.113Z,101426.03
2023-06-27T02:25:33.385Z,101435.78
2023-06-27T02:27:59.854Z,101431.72
2023-06-27T02:30:26.377Z,101430.88
2023-06-27T02:32:52.945Z,101395.50
2023-06-27T02:35:19.632Z,101412.53
2023-06-27T02:37:46.105Z,101370.88
2023-06-27T02:40:13.230Z,101415.06
2023-06-27T02:42:39.686Z,101410.34
2023-06-27T02:45:06.797Z,101424.34
2023-06-27T02:47:33.488Z,101425.69
2023-06-27T02:50:00.452Z,101412.38
2023-06-27T02:52:26.990Z,101429.06
2023-06-27T02:54:53.578Z,101420.31
2023-06-27T02:57:21.289Z,101413.75
2023-06-27T02:59:47.727Z,101427.38
2023-06-27T03:02:14.171Z,101428.56
2023-06-27T03:04:40.741Z,101422.97
2023-06-27T03:07:07.455Z,101429.53
2023-06-27T03:09:36.401Z,101352.00
2023-06-27T03:12:02.869Z,101398.69
2023-06-27T03:14:30.124Z,101422.59
2023-06-27T03:16:56.631Z,101430.00
2023-06-27T03:19:38.323Z,101433.03
2023-06-27T03:22:09.626Z,101426.47
2023-06-27T03:24:36.291Z,101439.75
2023-06-27T03:27:02.816Z,101438.06
2023-06-27T03:29:29.260Z,101431.81
2023-06-27T03:31:58.518Z,101446.16
2023-06-27T03:34:25.449Z,101402.50
2023-06-27T03:36:52.369Z,101400.63
2023-06-27T03:39:18.895Z,101431.31
2023-06-27T03:41:45.677Z,101436.06
2023-06-27T03:44:12.264Z,101444.97
2023-06-27T03:46:38.752Z,101438.59
2023-06-27T03:49:05.292Z,101449.19
2023-06-27T03:51:34.049Z,101370.81
2023-06-27T03:54:03.254Z,101436.91
2023-06-27T03:56:29.840Z,101429.69
2023-06-27T03:58:56.244Z,101434.88
2023-06-27T04:01:22.765Z,101428.16
2023-06-27T04:03:49.381Z,101407.78
2023-06-27T04:06:15.969Z,101420.41
2023-06-27T04:08:42.502Z,101400.69
2023-06-27T04:11:09.028Z,101437.59
2023-06-27T04:13:35.526Z,101434.91
2023-06-27T04:16:01.989Z,101429.19
2023-06-27T04:18:28.487Z,101442.19
2023-06-27T04:20:54.990Z,101426.66
2023-06-27T04:23:21.447Z,101412.53
2023-06-27T04:26:08.680Z,101435.78
2023-06-27T04:28:36.076Z,101446.59
2023-06-27T04:31:03.237Z,101400.09
2023-06-27T04:33:30.565Z,101445.31
2023-06-27T04:36:05.356Z,101444.78
2023-06-27T04:38:38.967Z,101432.13
2023-06-27T04:41:06.324Z,101448.34
2023-06-27T04:43:34.897Z,101440.25
2023-06-27T04:46:03.162Z,101442.09
2023-06-27T04:48:29.970Z,101426.75
2023-06-27T04:50:57.667Z,101488.28
2023-06-27T04:53:27.298Z,101470.56
2023-06-27T04:55:54.662Z,101477.31
2023-06-27T04:58:22.202Z,101465.50
2023-06-27T05:00:49.493Z,101458.34
2023-06-27T05:03:16.643Z,101424.94
2023-06-27T05:05:43.810Z,101462.19
2023-06-27T05:08:11.817Z,101453.06
2023-06-27T05:10:38.630Z,101456.94
2023-06-27T05:13:05.223Z,101441.78
2023-06-27T05:15:31.843Z,101457.09
2023-06-27T05:18:07.582Z,101454.75
2023-06-27T05:20:34.146Z,101426.94
2023-06-27T05:23:02.268Z,101457.78
2023-06-27T05:25:30.372Z,101450.22
2023-06-27T05:27:56.940Z,101442.63
2023-06-27T05:30:23.445Z,101438.75
2023-06-27T05:32:49.986Z,101442.97
2023-06-27T05:35:16.544Z,101441.97
2023-06-27T05:37:43.017Z,101431.22
2023-06-27T05:40:10.274Z,101420.25
2023-06-27T05:42:39.798Z,101427.66
2023-06-27T05:45:06.774Z,101425.50
2023-06-27T05:47:33.423Z,101424.34
2023-06-27T05:50:00.189Z,101423.50
2023-06-27T05:52:26.852Z,101427.50
2023-06-27T05:54:53.428Z,101435.59
2023-06-27T05:57:19.995Z,101429.72
2023-06-27T05:59:46.619Z,101434.63
2023-06-27T06:02:13.298Z,101389.44
2023-06-27T06:04:39.866Z,101427.38
2023-06-27T06:07:06.495Z,101430.06
2023-06-27T06:09:33.358Z,101422.69
2023-06-27T06:11:59.890Z,101407.69
2023-06-27T06:14:26.466Z,101418.84
2023-06-27T06:16:52.946Z,101429.97
2023-06-27T06:19:20.036Z,101418.69
2023-06-27T06:21:46.693Z,101424.56
2023-06-27T06:24:13.863Z,101420.38
2023-06-27T06:26:40.395Z,101417.34
2023-06-27T06:29:07.621Z,101435.03
2023-06-27T06:31:34.205Z,101407.22
2023-06-27T06:34:00.794Z,101409.41
2023-06-27T06:36:28.329Z,101409.22
2023-06-27T06:38:55.192Z,101422.84
2023-06-27T06:41:22.151Z,101426.22
2023-06-27T06:43:48.669Z,101381.56
2023-06-27T06:46:15.415Z,101419.91
2023-06-27T06:48:42.006Z,101419.03
2023-06-27T06:51:09.365Z,101423.03
2023-06-27T06:53:36.077Z,101420.78
2023-06-27T06:56:02.534Z,101427.50
2023-06-27T06:58:29.106Z,101425.38
2023-06-27T07:00:55.949Z,101417.38
2023-06-27T07:03:22.395Z,101422.38
2023-06-27T07:05:48.843Z,101427.16
2023-06-27T07:08:15.360Z,101420.66
2023-06-27T07:10:41.874Z,101419.19
2023-06-27T07:13:08.423Z,101425.88
2023-06-27T07:15:34.928Z,101383.50
2023-06-27T07:18:01.492Z,101381.81
2023-06-27T07:20:28.208Z,101431.88
2023-06-27T07:22:54.753Z,101415.50
2023-06-27T07:25:21.394Z,101408.09
2023-06-27T07:27:47.874Z,101411.66
2023-06-27T07:30:14.467Z,101406.63
2023-06-27T07:32:40.975Z,101391.78
2023-06-27T07:35:07.961Z,101395.66
2023-06-27T07:37:34.418Z,101396.84
2023-06-27T07:40:00.863Z,101413.59
2023-06-27T07:42:27.357Z,101407.72
2023-06-27T07:44:54.477Z,101429.34
2023-06-27T07:47:21.071Z,101432.94
2023-06-27T07:49:47.596Z,101412.81
2023-06-27T07:52:14.119Z,101425.94
2023-06-27T07:54:40.626Z,101422.78
2023-06-27T07:57:07.494Z,101414.25
2023-06-27T07:59:34.149Z,101414.28
2023-06-27T08:02:00.853Z,101371.00
2023-06-27T08:04:27.576Z,101393.63
2023-06-27T08:06:54.503Z,101384.75
2023-06-27T08:09:23.997Z,101434.13
2023-06-27T08:11:51.363Z,101394.72
2023-06-27T08:14:18.340Z,101414.41
2023-06-27T08:16:44.852Z,101416.06
2023-06-27T08:19:12.405Z,101418.69
2023-06-27T08:21:38.900Z,101427.09
2023-06-27T08:24:06.357Z,101429.56
2023-06-27T08:26:32.861Z,101440.34
2023-06-27T08:28:59.298Z,101435.94
2023-06-27T08:31:25.806Z,101423.81
2023-06-27T08:33:52.407Z,101421.34
2023-06-27T08:36:18.859Z,101392.56
2023-06-27T08:38:45.341Z,101419.72
2023-06-27T08:41:12.492Z,101427.16
2023-06-27T08:43:40.362Z,101423.09
2023-06-27T08:46:09.594Z,101409.97
2023-06-27T08:48:40.814Z,101403.19
2023-06-27T08:51:08.235Z,101409.09
2023-06-27T08:53:37.671Z,101413.25
2023-06-27T08:56:09.601Z,101404.13
2023-06-27T08:58:53.315Z,101406.25
2023-06-27T09:01:22.957Z,101416.13
2023-06-27T09:03:49.555Z,101408.75
2023-06-27T09:06:18.102Z,101397.69
2023-06-27T09:08:44.961Z,101342.53
2023-06-27T09:11:11.681Z,101396.78
2023-06-27T09:13:38.761Z,101410.06
2023-06-27T09:16:06.750Z,101383.22
2023-06-27T09:18:36.397Z,101397.38
2023-06-27T09:21:03.050Z,101363.44
2023-06-27T09:23:31.842Z,101393.59
2023-06-27T09:26:12.891Z,101393.06
2023-06-27T09:28:52.804Z,101386.06
2023-06-27T09:31:20.952Z,101380.97
2023-06-27T09:33:50.157Z,101393.38
2023-06-27T09:39:05.288Z,101402.22
2023-06-27T09:41:51.088Z,101408.81
2023-06-27T09:44:23.066Z,101402.75
2023-06-27T09:46:51.371Z,101395.25
2023-06-27T09:49:18.469Z,101391.47
2023-06-27T09:51:50.764Z,101409.09
2023-06-27T09:54:27.118Z,101382.28
2023-06-27T09:56:54.256Z,101387.91
2023-06-27T09:59:24.728Z,101402.97
2023-06-27T10:01:52.785Z,101406.94
2023-06-27T10:04:19.799Z,101401.03
2023-06-27T10:06:46.705Z,101411.59
2023-06-27T10:09:13.950Z,101408.34
2023-06-27T10:11:40.818Z,101403.63
2023-06-27T10:14:07.924Z,101385.59
2023-06-27T10:16:35.640Z,101397.03
2023-06-27T10:19:03.112Z,101372.66
2023-06-27T10:21:30.797Z,101389.03
2023-06-27T10:24:00.162Z,101372.22
2023-06-27T10:26:27.998Z,101375.78
2023-06-27T10:28:55.551Z,101370.94
2023-06-27T10:31:46.392Z,101367.34
2023-06-27T10:34:25.698Z,101364.91
2023-06-27T10:36:55.263Z,101361.34
2023-06-27T10:39:26.764Z,101376.72
2023-06-27T10:42:16.330Z,101368.81
2023-06-27T10:44:55.129Z,101379.34
2023-06-27T10:47:21.770Z,101377.94
2023-06-27T10:49:49.697Z,101363.31
2023-06-27T10:52:24.211Z,101389.06
2023-06-27T10:55:16.153Z,101391.31
2023-06-27T11:01:01.723Z,101335.34
2023-06-27T11:03:33.927Z,101377.66
2023-06-27T11:06:00.818Z,101385.44
2023-06-27T11:08:29.581Z,101378.88
2023-06-27T11:11:09.886Z,101377.72
2023-06-27T11:13:45.065Z,101388.59
2023-06-27T11:16:13.307Z,101380.25
2023-06-27T11:18:40.800Z,101383.59
2023-06-27T11:21:07.292Z,101387.88
2023-06-27T11:23:35.018Z,101392.41
2023-06-27T11:26:01.662Z,101378.25
2023-06-27T11:28:28.132Z,101377.06
2023-06-27T11:31:01.733Z,101399.75
2023-06-27T11:33:28.832Z,101370.88
2023-06-27T11:36:01.474Z,101355.75
2023-06-27T11:38:28.998Z,101406.44
2023-06-27T11:40:55.524Z,101387.97
2023-06-27T11:43:22.013Z,101396.25
2023-06-27T11:45:50.438Z,101382.94
2023-06-27T11:48:17.275Z,101387.03
2023-06-27T11:51:07.904Z,101391.44
2023-06-27T11:53:36.856Z,101388.28
2023-06-27T11:56:20.640Z,101379.91
2023-06-27T11:58:49.203Z,101374.63
2023-06-27T12:01:18.042Z,101385.84
2023-06-27T12:03:50.322Z,101374.91
2023-06-27T12:06:28.072Z,101380.78
2023-06-27T12:08:55.334Z,101363.44
2023-06-27T12:11:35.357Z,101367.59
2023-06-27T12:14:03.215Z,101417.75
2023-06-27T12:16:33.955Z,101436.69
2023-06-27T12:19:05.450Z,101444.47
2023-06-27T12:21:32.432Z,101419.44
2023-06-27T12:23:58.931Z,101445.72
2023-06-27T12:26:25.468Z,101407.31
2023-06-27T12:28:59.509Z,101429.72
2023-06-27T12:31:26.781Z,101421.81
2023-06-27T12:33:54.121Z,101385.84
2023-06-27T12:36:25.457Z,101405.50
2023-06-27T12:38:53.116Z,101411.00
2023-06-27T12:41:20.875Z,101392.38
2023-06-27T12:43:48.020Z,101408.31
2023-06-27T12:46:15.199Z,101403.38
2023-06-27T12:48:42.908Z,101381.97
2023-06-27T12:51:09.632Z,101398.38
2023-06-27T12:53:36.436Z,101386.91
2023-06-27T12:56:05.848Z,101380.69
2023-06-27T12:58:33.283Z,101384.41
2023-06-27T13:01:01.590Z,101364.50
2023-06-27T13:03:29.136Z,101364.00
2023-06-27T13:05:57.185Z,101385.41
2023-06-27T13:08:23.829Z,101354.03
2023-06-27T13:10:50.819Z,101373.06
2023-06-27T13:13:20.343Z,101351.69
2023-06-27T13:15:59.778Z,101339.94
2023-06-27T13:18:31.637Z,101356.06
2023-06-27T13:20:58.218Z,101364.16
2023-06-27T13:23:24.665Z,101366.66
2023-06-27T13:25:51.124Z,101371.25
2023-06-27T13:28:17.557Z,101361.84
2023-06-27T13:30:44.496Z,101366.69
2023-06-27T13:33:11.675Z,101380.06
2023-06-27T13:35:38.192Z,101370.84
2023-06-27T13:38:05.620Z,101339.19
2023-06-27T13:40:32.065Z,101367.78
2023-06-27T13:42:58.634Z,101337.16
2023-06-27T13:45:25.207Z,101354.78
2023-06-27T13:47:52.340Z,101357.44
2023-06-27T13:50:19.734Z,101347.03
2023-06-27T13:52:46.224Z,101291.94
2023-06-27T13:55:12.833Z,101358.56
2023-06-27T13:57:39.322Z,101311.03
2023-06-27T14:00:06.935Z,101358.91
2023-06-27T14:02:34.474Z,101367.00
2023-06-27T14:05:01.361Z,101329.09
2023-06-27T14:07:28.010Z,101350.06
2023-06-27T14:09:54.546Z,101350.50
2023-06-27T14:12:21.688Z,101344.13
2023-06-27T14:14:50.704Z,101347.84
2023-06-27T14:17:17.424Z,101322.09
2023-06-27T14:19:44.700Z,101323.38
2023-06-27T14:22:12.363Z,101355.13
2023-06-27T14:24:38.857Z,101334.88
2023-06-27T14:27:05.680Z,101344.00
2023-06-27T14:29:32.149Z,101315.25
2023-06-27T14:31:58.631Z,101333.47
2023-06-27T14:34:25.141Z,101331.31
2023-06-27T14:36:53.183Z,101311.97
2023-06-27T14:39:22.958Z,101338.28
2023-06-27T14:41:49.550Z,101289.34
2023-06-27T14:44:16.039Z,101354.75
2023-06-27T14:46:42.597Z,101347.00
2023-06-27T14:49:09.424Z,101332.34
2023-06-27T14:51:36.846Z,101361.00
2023-06-27T14:54:04.736Z,101348.47
2023-06-27T14:56:31.395Z,101324.34
2023-06-27T14:58:57.928Z,101338.72
2023-06-27T15:01:26.376Z,101329.41
2023-06-27T15:03:53.704Z,101340.34
2023-06-27T15:06:21.572Z,101336.00
2023-06-27T15:08:49.928Z,101321.91
2023-06-27T15:11:16.462Z,101324.72
2023-06-27T15:13:42.965Z,101330.16
2023-06-27T15:16:09.794Z,101323.94
2023-06-27T15:18:36.718Z,101352.00
2023-06-27T15:21:03.451Z,101311.34
2023-06-27T15:23:38.051Z,101335.63
2023-06-27T15:26:07.329Z,101359.53
2023-06-27T15:28:34.156Z,101340.84
2023-06-27T15:31:00.701Z,101358.94
2023-06-27T15:33:27.334Z,101362.53
2023-06-27T15:35:53.770Z,101353.56
2023-06-27T15:38:20.284Z,101368.88
2023-06-27T15:40:49.841Z,101356.50
2023-06-27T15:43:16.409Z,101352.97
2023-06-27T15:45:43.063Z,101340.84
2023-06-27T15:48:09.624Z,101326.19
2023-06-27T15:50:36.174Z,101364.06
2023-06-27T15:53:02.756Z,101354.00
2023-06-27T15:55:29.306Z,101350.66
2023-06-27T15:57:55.885Z,101352.72
2023-06-27T16:00:22.586Z,101344.13
2023-06-27T16:02:49.331Z,101338.91
2023-06-27T16:05:16.326Z,101339.47
2023-06-27T16:07:43.649Z,101356.06
2023-06-27T16:10:11.133Z,101349.34
2023-06-27T16:12:37.885Z,101361.09
2023-06-27T16:15:04.856Z,101352.09
2023-06-27T16:17:31.400Z,101343.31
2023-06-27T16:19:58.095Z,101306.72
2023-06-27T16:22:24.598Z,101338.09
2023-06-27T16:24:51.134Z,101356.75
2023-06-27T16:27:17.628Z,101354.88
2023-06-27T16:29:44.188Z,101326.78
2023-06-27T16:32:10.632Z,101363.41
2023-06-27T16:34:40.636Z,101339.75
2023-06-27T16:37:08.199Z,101271.25
2023-06-27T16:39:35.553Z,101362.28
2023-06-27T16:42:02.087Z,101347.44
2023-06-27T16:44:28.595Z,101367.03
2023-06-27T16:46:55.519Z,101358.38
2023-06-27T16:49:22.095Z,101355.03
2023-06-27T16:51:48.575Z,101350.78
2023-06-27T16:54:16.146Z,101353.00
2023-06-27T16:56:42.591Z,101361.16
2023-06-27T16:59:09.051Z,101337.91
2023-06-27T17:01:35.661Z,101359.00
2023-06-27T17:04:02.152Z,101355.91
2023-06-27T17:06:28.683Z,101345.94
2023-06-27T17:08:55.201Z,101348.13
2023-06-27T17:11:22.168Z,101355.47
2023-06-27T17:13:49.493Z,101359.34
2023-06-27T17:16:16.118Z,101371.50
2023-06-27T17:18:42.584Z,101339.31
2023-06-27T17:21:09.141Z,101358.38
2023-06-27T17:23:37.202Z,101355.03
2023-06-27T17:26:03.847Z,101360.50
2023-06-27T17:28:30.545Z,101336.63
2023-06-27T17:30:57.335Z,101345.19
2023-06-27T17:33:26.528Z,101350.47
2023-06-27T17:35:53.167Z,101344.59
2023-06-27T17:38:19.664Z,101362.16
2023-06-27T17:40:46.134Z,101352.13
2023-06-27T17:43:12.629Z,101344.16
2023-06-27T17:45:39.389Z,101355.03
2023-06-27T17:48:06.522Z,101343.75
2023-06-27T17:50:33.064Z,101354.63
2023-06-27T17:53:02.826Z,101359.88
2023-06-27T17:55:29.358Z,101354.66
2023-06-27T17:57:55.859Z,101364.50
2023-06-27T18:00:22.808Z,101339.97
2023-06-27T18:02:49.601Z,101359.88
2023-06-27T18:05:16.216Z,101363.59
2023-06-27T18:07:42.768Z,101342.16
2023-06-27T18:10:09.742Z,101319.03
2023-06-27T18:12:36.311Z,101358.19
2023-06-27T18:15:04.248Z,101363.34
2023-06-27T18:17:30.920Z,101361.19
2023-06-27T18:19:57.601Z,101372.44
2023-06-27T18:22:26.426Z,101357.34
2023-06-27T18:24:53.686Z,101375.16
2023-06-27T18:27:20.605Z,101355.75
2023-06-27T18:29:49.108Z,101355.66
2023-06-27T18:32:16.170Z,101364.75
2023-06-27T18:34:42.706Z,101358.72
2023-06-27T18:37:09.739Z,101320.00
2023-06-27T18:39:36.880Z,101327.38
2023-06-27T18:42:03.996Z,101348.31
2023-06-27T18:44:31.467Z,101350.41
2023-06-27T18:46:58.126Z,101358.59
2023-06-27T18:49:24.601Z,101367.78
2023-06-27T18:51:51.140Z,101352.91
2023-06-27T18:54:17.673Z,101358.28
2023-06-27T18:56:44.249Z,101361.19
2023-06-27T18:59:10.771Z,101368.41
2023-06-27T19:01:37.552Z,101349.47
2023-06-27T19:04:04.309Z,101361.53
2023-06-27T19:06:31.358Z,101364.09
2023-06-27T19:08:58.065Z,101309.28
2023-06-27T19:11:28.534Z,101369.31
2023-06-27T19:13:56.627Z,101370.44
2023-06-27T19:16:23.231Z,101365.69
2023-06-27T19:18:50.205Z,101365.00
2023-06-27T19:21:18.258Z,101367.19
2023-06-27T19:23:44.768Z,101375.16
2023-06-27T19:26:11.644Z,101367.47
2023-06-27T19:28:38.182Z,101378.84
2023-06-27T19:31:04.812Z,101325.91
2023-06-27T19:33:31.377Z,101376.28
2023-06-27T19:35:59.487Z,101379.09
2023-06-27T19:38:26.125Z,101373.81
2023-06-27T19:40:53.260Z,101383.03
2023-06-27T19:43:19.906Z,101385.00
2023-06-27T19:45:46.513Z,101394.84
2023-06-27T19:48:13.000Z,101388.41
2023-06-27T19:50:40.063Z,101377.28
2023-06-27T19:53:06.974Z,101363.66
2023-06-27T19:55:33.573Z,101383.34
2023-06-27T19:58:00.120Z,101383.44
2023-06-27T20:00:26.727Z,101384.34
2023-06-27T20:02:53.279Z,101366.75
2023-06-27T20:05:19.894Z,101379.00
2023-06-27T20:07:48.286Z,101395.38
2023-06-27T20:10:16.120Z,101392.72
2023-06-27T20:12:43.979Z,101392.97
2023-06-27T20:15:11.040Z,101402.44
2023-06-27T20:17:37.829Z,101402.31
2023-06-27T20:20:05.280Z,101396.47
2023-06-27T20:22:31.738Z,101402.59
2023-06-27T20:24:58.444Z,101379.25
2023-06-27T20:27:25.572Z,101410.28
2023-06-27T20:29:56.334Z,101416.38
2023-06-27T20:32:22.955Z,101410.19
2023-06-27T20:34:49.594Z,101382.28
2023-06-27T20:37:16.111Z,101403.19
2023-06-27T20:39:42.942Z,101420.38
2023-06-27T20:42:09.478Z,101414.84
2023-06-27T20:44:35.973Z,101413.88
2023-06-27T20:47:02.463Z,101424.31
2023-06-27T20:49:28.953Z,101422.47
2023-06-27T20:51:55.472Z,101421.97
2023-06-27T20:54:21.949Z,101422.66
2023-06-27T20:56:48.517Z,101416.97
2023-06-27T20:59:14.963Z,101431.97
2023-06-27T21:01:41.643Z,101428.25
2023-06-27T21:04:08.416Z,101416.31
2023-06-27T21:06:34.948Z,101429.97
2023-06-27T21:09:01.407Z,101426.06
2023-06-27T21:11:27.916Z,101408.06
2023-06-27T21:13:54.334Z,101431.50
2023-06-27T21:16:20.867Z,101432.16
2023-06-27T21:18:47.466Z,101422.72
2023-06-27T21:21:14.005Z,101420.72
2023-06-27T21:23:40.631Z,101424.91
2023-06-27T21:26:07.293Z,101420.88
2023-06-27T21:28:33.858Z,101430.97
2023-06-27T21:31:02.800Z,101413.44
2023-06-27T21:33:30.957Z,101424.91
2023-06-27T21:35:57.883Z,101366.56
2023-06-27T21:38:24.532Z,101429.44
2023-06-27T21:40:50.980Z,101429.75
2023-06-27T21:43:17.452Z,101394.34
2023-06-27T21:45:43.951Z,101428.88
2023-06-27T21:48:10.610Z,101424.00
2023-06-27T21:50:38.665Z,101412.88
2023-06-27T21:53:05.550Z,101432.75
2023-06-27T21:55:32.204Z,101389.59
2023-06-27T21:57:58.829Z,101424.50
2023-06-27T22:00:25.833Z,101421.13
2023-06-27T22:02:52.610Z,101419.22
2023-06-27T22:05:20.524Z,101427.00
2023-06-27T22:07:51.452Z,101430.69
2023-06-27T22:10:19.025Z,101434.53
2023-06-27T22:12:46.388Z,101399.31
2023-06-27T22:15:13.370Z,101440.44
2023-06-27T22:17:40.114Z,101439.75
2023-06-27T22:20:08.624Z,101416.66
2023-06-27T22:22:35.777Z,101433.31
2023-06-27T22:25:03.460Z,101399.94
2023-06-27T22:27:30.497Z,101430.31
2023-06-27T22:29:57.002Z,101434.31
2023-06-27T22:32:23.481Z,101428.41
2023-06-27T22:34:50.673Z,101434.09
2023-06-27T22:37:17.142Z,101403.44
2023-06-27T22:39:43.641Z,101422.63
2023-06-27T22:42:10.358Z,101420.25
2023-06-27T22:44:36.925Z,101419.75
2023-06-27T22:47:03.724Z,101424.09
2023-06-27T22:49:30.171Z,101425.94
2023-06-27T22:51:56.725Z,101383.22
2023-06-27T22:54:23.271Z,101399.00
2023-06-27T22:56:49.941Z,101436.63
2023-06-27T22:59:16.422Z,101429.91
2023-06-27T23:01:42.955Z,101432.34
2023-06-27T23:04:09.385Z,101440.41
2023-06-27T23:06:35.843Z,101427.78
2023-06-27T23:09:02.312Z,101424.88
2023-06-27T23:11:31.880Z,101434.47
2023-06-27T23:13:59.013Z,101433.94
2023-06-27T23:16:26.984Z,101441.47
2023-06-27T23:18:58.577Z,101410.75
2023-06-27T23:21:26.249Z,101434.81
2023-06-27T23:23:56.032Z,101385.19
2023-06-27T23:26:23.144Z,101439.81
2023-06-27T23:28:51.380Z,101447.22
2023-06-27T23:31:20.905Z,101456.03
2023-06-27T23:33:47.697Z,101444.44
2023-06-27T23:36:14.668Z,101438.03
2023-06-27T23:38:41.174Z,101450.63
2023-06-27T23:41:07.971Z,101436.25
2023-06-27T23:43:34.419Z,101446.69
2023-06-27T23:46:00.953Z,101438.78
2023-06-27T23:48:27.758Z,101436.41
2023-06-27T23:50:54.270Z,101441.78
2023-06-27T23:53:20.782Z,101434.88
2023-06-27T23:55:47.205Z,101433.34
2023-06-27T23:58:13.820Z,101430.66
